sensor_id;sensor_type;location;lat;lon;timestamp;P1;durP1;ratioP1;P2;durP2;ratioP2
35150;SDS011;55720;51.972;4.624;2023-08-06T00:01:11;16.80;;;10.18;;
35150;SDS011;55720;51.972;4.624;2023-08-06T00:03:36;14.80;;;10.13;;
35150;SDS011;55720;51.972;4.624;2023-08-06T00:06:02;13.25;;;9.90;;
35150;SDS011;55720;51.972;4.624;2023-08-06T00:08:27;16.10;;;9.57;;
35150;SDS011;55720;51.972;4.624;2023-08-06T00:10:53;15.43;;;9.55;;
35150;SDS011;55720;51.972;4.624;2023-08-06T00:13:18;13.77;;;9.25;;
35150;SDS011;55720;51.972;4.624;2023-08-06T00:15:43;13.98;;;9.52;;
35150;SDS011;55720;51.972;4.624;2023-08-06T00:18:09;12.63;;;9.30;;
35150;SDS011;55720;51.972;4.624;2023-08-06T00:20:34;11.00;;;8.70;;
35150;SDS011;55720;51.972;4.624;2023-08-06T00:22:59;13.10;;;8.52;;
35150;SDS011;55720;51.972;4.624;2023-08-06T00:25:25;12.95;;;9.45;;
35150;SDS011;55720;51.972;4.624;2023-08-06T00:27:50;16.77;;;9.65;;
35150;SDS011;55720;51.972;4.624;2023-08-06T00:30:15;13.95;;;9.30;;
35150;SDS011;55720;51.972;4.624;2023-08-06T00:32:41;10.80;;;8.88;;
35150;SDS011;55720;51.972;4.624;2023-08-06T00:35:06;16.48;;;9.52;;
35150;SDS011;55720;51.972;4.624;2023-08-06T00:37:32;14.32;;;8.88;;
35150;SDS011;55720;51.972;4.624;2023-08-06T00:39:57;15.02;;;9.45;;
35150;SDS011;55720;51.972;4.624;2023-08-06T00:42:23;17.05;;;9.88;;
35150;SDS011;55720;51.972;4.624;2023-08-06T00:44:48;13.82;;;9.52;;
35150;SDS011;55720;51.972;4.624;2023-08-06T00:47:14;19.35;;;9.45;;
35150;SDS011;55720;51.972;4.624;2023-08-06T00:49:40;17.08;;;10.00;;
35150;SDS011;55720;51.972;4.624;2023-08-06T00:52:06;13.27;;;9.32;;
35150;SDS011;55720;51.972;4.624;2023-08-06T00:54:34;14.90;;;10.93;;
35150;SDS011;55720;51.972;4.624;2023-08-06T00:57:01;12.85;;;8.93;;
35150;SDS011;55720;51.972;4.624;2023-08-06T00:59:27;18.38;;;9.65;;
35150;SDS011;55720;51.972;4.624;2023-08-06T01:01:55;11.85;;;8.85;;
35150;SDS011;55720;51.972;4.624;2023-08-06T01:04:20;19.05;;;9.82;;
35150;SDS011;55720;51.972;4.624;2023-08-06T01:06:52;15.65;;;9.48;;
35150;SDS011;55720;51.972;4.624;2023-08-06T01:12:48;15.57;;;9.27;;
35150;SDS011;55720;51.972;4.624;2023-08-06T01:15:24;16.58;;;10.35;;
35150;SDS011;55720;51.972;4.624;2023-08-06T01:17:54;13.07;;;8.77;;
35150;SDS011;55720;51.972;4.624;2023-08-06T01:20:19;16.40;;;9.82;;
35150;SDS011;55720;51.972;4.624;2023-08-06T01:22:45;13.48;;;9.75;;
35150;SDS011;55720;51.972;4.624;2023-08-06T01:25:10;18.38;;;10.00;;
35150;SDS011;55720;51.972;4.624;2023-08-06T01:30:12;16.83;;;9.63;;
35150;SDS011;55720;51.972;4.624;2023-08-06T01:32:45;14.45;;;9.07;;
35150;SDS011;55720;51.972;4.624;2023-08-06T01:35:15;13.07;;;9.30;;
35150;SDS011;55720;51.972;4.624;2023-08-06T01:37:42;18.58;;;9.27;;
35150;SDS011;55720;51.972;4.624;2023-08-06T01:40:11;14.23;;;9.25;;
35150;SDS011;55720;51.972;4.624;2023-08-06T01:42:38;15.80;;;10.30;;
35150;SDS011;55720;51.972;4.624;2023-08-06T01:45:04;15.13;;;9.07;;
35150;SDS011;55720;51.972;4.624;2023-08-06T01:47:30;14.88;;;9.60;;
35150;SDS011;55720;51.972;4.624;2023-08-06T01:49:55;16.05;;;10.27;;
35150;SDS011;55720;51.972;4.624;2023-08-06T01:52:21;13.60;;;9.23;;
35150;SDS011;55720;51.972;4.624;2023-08-06T01:54:46;13.57;;;9.90;;
35150;SDS011;55720;51.972;4.624;2023-08-06T01:57:13;17.23;;;9.90;;
35150;SDS011;55720;51.972;4.624;2023-08-06T01:59:38;14.35;;;9.60;;
35150;SDS011;55720;51.972;4.624;2023-08-06T02:02:03;17.30;;;9.70;;
35150;SDS011;55720;51.972;4.624;2023-08-06T02:04:29;18.08;;;10.30;;
35150;SDS011;55720;51.972;4.624;2023-08-06T02:06:54;13.70;;;9.57;;
35150;SDS011;55720;51.972;4.624;2023-08-06T02:09:20;14.02;;;9.77;;
35150;SDS011;55720;51.972;4.624;2023-08-06T02:11:45;17.90;;;9.40;;
35150;SDS011;55720;51.972;4.624;2023-08-06T02:14:10;20.55;;;10.75;;
35150;SDS011;55720;51.972;4.624;2023-08-06T02:16:36;14.75;;;10.45;;
35150;SDS011;55720;51.972;4.624;2023-08-06T02:19:02;14.98;;;9.93;;
35150;SDS011;55720;51.972;4.624;2023-08-06T02:21:27;19.08;;;10.80;;
35150;SDS011;55720;51.972;4.624;2023-08-06T02:23:53;20.95;;;10.65;;
35150;SDS011;55720;51.972;4.624;2023-08-06T02:26:18;21.73;;;11.13;;
35150;SDS011;55720;51.972;4.624;2023-08-06T02:28:43;18.08;;;11.32;;
35150;SDS011;55720;51.972;4.624;2023-08-06T02:31:09;19.67;;;11.30;;
35150;SDS011;55720;51.972;4.624;2023-08-06T02:33:34;17.02;;;10.30;;
35150;SDS011;55720;51.972;4.624;2023-08-06T02:36:00;14.60;;;10.45;;
35150;SDS011;55720;51.972;4.624;2023-08-06T02:38:26;17.63;;;10.77;;
35150;SDS011;55720;51.972;4.624;2023-08-06T02:40:52;20.13;;;11.95;;
35150;SDS011;55720;51.972;4.624;2023-08-06T02:43:17;18.08;;;11.65;;
35150;SDS011;55720;51.972;4.624;2023-08-06T02:45:43;18.83;;;11.32;;
35150;SDS011;55720;51.972;4.624;2023-08-06T02:48:08;20.08;;;12.15;;
35150;SDS011;55720;51.972;4.624;2023-08-06T02:50:40;17.55;;;11.60;;
35150;SDS011;55720;51.972;4.624;2023-08-06T02:53:09;18.10;;;12.05;;
35150;SDS011;55720;51.972;4.624;2023-08-06T02:55:35;21.92;;;12.45;;
35150;SDS011;55720;51.972;4.624;2023-08-06T02:58:01;17.25;;;11.52;;
35150;SDS011;55720;51.972;4.624;2023-08-06T03:00:27;20.15;;;12.32;;
35150;SDS011;55720;51.972;4.624;2023-08-06T03:02:52;21.17;;;12.07;;
35150;SDS011;55720;51.972;4.624;2023-08-06T03:05:18;19.90;;;11.50;;
35150;SDS011;55720;51.972;4.624;2023-08-06T03:07:46;22.33;;;12.60;;
35150;SDS011;55720;51.972;4.624;2023-08-06T03:10:12;21.27;;;11.75;;
35150;SDS011;55720;51.972;4.624;2023-08-06T03:12:38;16.83;;;10.80;;
35150;SDS011;55720;51.972;4.624;2023-08-06T03:15:03;19.98;;;11.77;;
35150;SDS011;55720;51.972;4.624;2023-08-06T03:17:29;21.98;;;12.00;;
35150;SDS011;55720;51.972;4.624;2023-08-06T03:19:54;20.95;;;12.07;;
35150;SDS011;55720;51.972;4.624;2023-08-06T03:22:20;22.35;;;11.57;;
35150;SDS011;55720;51.972;4.624;2023-08-06T03:24:45;21.50;;;13.10;;
35150;SDS011;55720;51.972;4.624;2023-08-06T03:27:10;21.10;;;13.43;;
35150;SDS011;55720;51.972;4.624;2023-08-06T03:29:36;22.73;;;12.52;;
35150;SDS011;55720;51.972;4.624;2023-08-06T03:32:01;18.85;;;10.05;;
35150;SDS011;55720;51.972;4.624;2023-08-06T03:34:26;10.05;;;8.05;;
35150;SDS011;55720;51.972;4.624;2023-08-06T03:36:52;10.63;;;7.13;;
35150;SDS011;55720;51.972;4.624;2023-08-06T03:39:17;5.78;;;4.68;;
35150;SDS011;55720;51.972;4.624;2023-08-06T03:41:42;5.53;;;4.03;;
35150;SDS011;55720;51.972;4.624;2023-08-06T03:44:08;3.38;;;2.50;;
35150;SDS011;55720;51.972;4.624;2023-08-06T03:46:33;2.75;;;2.13;;
35150;SDS011;55720;51.972;4.624;2023-08-06T03:49:01;2.80;;;2.28;;
35150;SDS011;55720;51.972;4.624;2023-08-06T03:51:27;2.40;;;2.20;;
35150;SDS011;55720;51.972;4.624;2023-08-06T03:53:53;3.70;;;3.33;;
35150;SDS011;55720;51.972;4.624;2023-08-06T03:56:18;7.78;;;4.88;;
35150;SDS011;55720;51.972;4.624;2023-08-06T03:58:43;6.65;;;6.00;;
35150;SDS011;55720;51.972;4.624;2023-08-06T04:01:09;13.57;;;6.72;;
35150;SDS011;55720;51.972;4.624;2023-08-06T04:03:34;12.10;;;7.57;;
35150;SDS011;55720;51.972;4.624;2023-08-06T04:05:59;17.20;;;9.43;;
35150;SDS011;55720;51.972;4.624;2023-08-06T04:08:27;9.07;;;5.57;;
35150;SDS011;55720;51.972;4.624;2023-08-06T04:10:53;7.53;;;4.53;;
35150;SDS011;55720;51.972;4.624;2023-08-06T04:13:18;8.77;;;4.60;;
35150;SDS011;55720;51.972;4.624;2023-08-06T04:15:45;6.50;;;4.72;;
35150;SDS011;55720;51.972;4.624;2023-08-06T04:18:10;7.25;;;4.97;;
35150;SDS011;55720;51.972;4.624;2023-08-06T04:20:42;6.50;;;4.85;;
35150;SDS011;55720;51.972;4.624;2023-08-06T04:23:08;6.95;;;4.93;;
35150;SDS011;55720;51.972;4.624;2023-08-06T04:25:34;8.30;;;4.57;;
35150;SDS011;55720;51.972;4.624;2023-08-06T04:27:59;5.45;;;4.70;;
35150;SDS011;55720;51.972;4.624;2023-08-06T04:30:24;11.13;;;4.70;;
35150;SDS011;55720;51.972;4.624;2023-08-06T04:32:50;7.53;;;4.53;;
35150;SDS011;55720;51.972;4.624;2023-08-06T04:35:16;7.55;;;4.63;;
35150;SDS011;55720;51.972;4.624;2023-08-06T04:37:41;9.95;;;4.70;;
35150;SDS011;55720;51.972;4.624;2023-08-06T04:40:07;9.70;;;4.90;;
35150;SDS011;55720;51.972;4.624;2023-08-06T04:42:32;6.95;;;4.53;;
35150;SDS011;55720;51.972;4.624;2023-08-06T04:44:58;9.90;;;4.45;;
35150;SDS011;55720;51.972;4.624;2023-08-06T04:47:23;6.55;;;4.75;;
35150;SDS011;55720;51.972;4.624;2023-08-06T04:49:50;8.30;;;4.68;;
35150;SDS011;55720;51.972;4.624;2023-08-06T04:52:16;10.13;;;4.30;;
35150;SDS011;55720;51.972;4.624;2023-08-06T04:54:41;5.97;;;4.50;;
35150;SDS011;55720;51.972;4.624;2023-08-06T04:57:08;6.03;;;4.20;;
35150;SDS011;55720;51.972;4.624;2023-08-06T04:59:33;5.72;;;4.50;;
35150;SDS011;55720;51.972;4.624;2023-08-06T05:01:59;10.35;;;4.90;;
35150;SDS011;55720;51.972;4.624;2023-08-06T05:04:24;7.32;;;4.70;;
35150;SDS011;55720;51.972;4.624;2023-08-06T05:06:49;7.47;;;4.75;;
35150;SDS011;55720;51.972;4.624;2023-08-06T05:09:15;9.00;;;4.65;;
35150;SDS011;55720;51.972;4.624;2023-08-06T05:11:40;10.73;;;4.60;;
35150;SDS011;55720;51.972;4.624;2023-08-06T05:14:05;6.63;;;4.88;;
35150;SDS011;55720;51.972;4.624;2023-08-06T05:16:31;8.25;;;4.43;;
35150;SDS011;55720;51.972;4.624;2023-08-06T05:18:56;7.80;;;4.35;;
35150;SDS011;55720;51.972;4.624;2023-08-06T05:21:22;5.43;;;4.55;;
35150;SDS011;55720;51.972;4.624;2023-08-06T05:23:47;8.88;;;5.05;;
35150;SDS011;55720;51.972;4.624;2023-08-06T05:26:12;8.25;;;4.70;;
35150;SDS011;55720;51.972;4.624;2023-08-06T05:28:39;8.60;;;4.90;;
35150;SDS011;55720;51.972;4.624;2023-08-06T05:31:06;6.72;;;4.80;;
35150;SDS011;55720;51.972;4.624;2023-08-06T05:33:31;7.25;;;4.90;;
35150;SDS011;55720;51.972;4.624;2023-08-06T05:35:57;7.72;;;4.80;;
35150;SDS011;55720;51.972;4.624;2023-08-06T05:38:22;6.78;;;5.03;;
35150;SDS011;55720;51.972;4.624;2023-08-06T05:40:48;6.38;;;4.88;;
35150;SDS011;55720;51.972;4.624;2023-08-06T05:43:14;10.13;;;5.18;;
35150;SDS011;55720;51.972;4.624;2023-08-06T05:45:39;10.68;;;5.10;;
35150;SDS011;55720;51.972;4.624;2023-08-06T05:48:08;10.43;;;5.32;;
35150;SDS011;55720;51.972;4.624;2023-08-06T05:50:34;9.27;;;5.60;;
35150;SDS011;55720;51.972;4.624;2023-08-06T05:52:59;7.05;;;5.50;;
35150;SDS011;55720;51.972;4.624;2023-08-06T05:55:24;12.75;;;6.70;;
35150;SDS011;55720;51.972;4.624;2023-08-06T05:57:50;8.52;;;5.53;;
35150;SDS011;55720;51.972;4.624;2023-08-06T06:00:17;6.85;;;4.72;;
35150;SDS011;55720;51.972;4.624;2023-08-06T06:02:43;4.85;;;4.13;;
35150;SDS011;55720;51.972;4.624;2023-08-06T06:05:09;8.05;;;4.90;;
35150;SDS011;55720;51.972;4.624;2023-08-06T06:07:34;9.13;;;5.22;;
35150;SDS011;55720;51.972;4.624;2023-08-06T06:09:59;6.82;;;4.28;;
35150;SDS011;55720;51.972;4.624;2023-08-06T06:12:25;7.57;;;4.18;;
35150;SDS011;55720;51.972;4.624;2023-08-06T06:14:51;9.60;;;3.58;;
35150;SDS011;55720;51.972;4.624;2023-08-06T06:17:16;7.68;;;3.42;;
35150;SDS011;55720;51.972;4.624;2023-08-06T06:19:42;7.05;;;3.65;;
35150;SDS011;55720;51.972;4.624;2023-08-06T06:22:07;6.38;;;3.75;;
35150;SDS011;55720;51.972;4.624;2023-08-06T06:24:33;10.75;;;3.55;;
35150;SDS011;55720;51.972;4.624;2023-08-06T06:26:58;7.90;;;3.13;;
35150;SDS011;55720;51.972;4.624;2023-08-06T06:29:24;7.57;;;3.13;;
35150;SDS011;55720;51.972;4.624;2023-08-06T06:31:49;7.93;;;3.03;;
35150;SDS011;55720;51.972;4.624;2023-08-06T06:34:14;5.72;;;2.80;;
35150;SDS011;55720;51.972;4.624;2023-08-06T06:36:40;5.07;;;3.15;;
35150;SDS011;55720;51.972;4.624;2023-08-06T06:39:05;5.38;;;2.40;;
35150;SDS011;55720;51.972;4.624;2023-08-06T06:41:30;6.90;;;2.67;;
35150;SDS011;55720;51.972;4.624;2023-08-06T06:43:58;7.45;;;2.40;;
35150;SDS011;55720;51.972;4.624;2023-08-06T06:46:23;9.15;;;1.85;;
35150;SDS011;55720;51.972;4.624;2023-08-06T06:48:49;2.47;;;2.08;;
35150;SDS011;55720;51.972;4.624;2023-08-06T06:51:14;3.78;;;1.70;;
35150;SDS011;55720;51.972;4.624;2023-08-06T06:53:39;6.22;;;1.80;;
35150;SDS011;55720;51.972;4.624;2023-08-06T06:56:05;4.22;;;2.00;;
35150;SDS011;55720;51.972;4.624;2023-08-06T06:58:31;1.95;;;1.30;;
35150;SDS011;55720;51.972;4.624;2023-08-06T07:00:57;5.80;;;1.48;;
35150;SDS011;55720;51.972;4.624;2023-08-06T07:03:22;5.93;;;1.30;;
35150;SDS011;55720;51.972;4.624;2023-08-06T07:05:48;3.95;;;1.20;;
35150;SDS011;55720;51.972;4.624;2023-08-06T07:08:14;7.13;;;1.42;;
35150;SDS011;55720;51.972;4.624;2023-08-06T07:10:40;5.07;;;1.10;;
35150;SDS011;55720;51.972;4.624;2023-08-06T07:13:06;2.25;;;1.23;;
35150;SDS011;55720;51.972;4.624;2023-08-06T07:15:31;3.03;;;1.25;;
35150;SDS011;55720;51.972;4.624;2023-08-06T07:17:57;6.60;;;1.52;;
35150;SDS011;55720;51.972;4.624;2023-08-06T07:20:22;6.28;;;1.30;;
35150;SDS011;55720;51.972;4.624;2023-08-06T07:22:48;7.07;;;1.50;;
35150;SDS011;55720;51.972;4.624;2023-08-06T07:25:14;4.13;;;1.20;;
35150;SDS011;55720;51.972;4.624;2023-08-06T07:27:40;2.28;;;1.40;;
35150;SDS011;55720;51.972;4.624;2023-08-06T07:30:06;3.85;;;1.70;;
35150;SDS011;55720;51.972;4.624;2023-08-06T07:32:31;6.47;;;1.75;;
35150;SDS011;55720;51.972;4.624;2023-08-06T07:34:57;4.07;;;1.50;;
35150;SDS011;55720;51.972;4.624;2023-08-06T07:37:25;3.97;;;1.15;;
35150;SDS011;55720;51.972;4.624;2023-08-06T07:39:53;3.17;;;1.50;;
35150;SDS011;55720;51.972;4.624;2023-08-06T07:42:18;3.28;;;1.75;;
35150;SDS011;55720;51.972;4.624;2023-08-06T07:44:49;5.13;;;1.58;;
35150;SDS011;55720;51.972;4.624;2023-08-06T07:47:24;3.80;;;1.38;;
35150;SDS011;55720;51.972;4.624;2023-08-06T07:49:49;10.40;;;2.72;;
35150;SDS011;55720;51.972;4.624;2023-08-06T07:52:15;5.15;;;1.80;;
35150;SDS011;55720;51.972;4.624;2023-08-06T07:54:40;1.92;;;1.25;;
35150;SDS011;55720;51.972;4.624;2023-08-06T07:57:06;3.65;;;1.90;;
35150;SDS011;55720;51.972;4.624;2023-08-06T07:59:31;4.80;;;1.80;;
35150;SDS011;55720;51.972;4.624;2023-08-06T08:01:57;6.07;;;1.98;;
35150;SDS011;55720;51.972;4.624;2023-08-06T08:04:23;5.45;;;2.00;;
35150;SDS011;55720;51.972;4.624;2023-08-06T08:06:48;3.53;;;1.80;;
35150;SDS011;55720;51.972;4.624;2023-08-06T08:09:14;3.75;;;1.67;;
35150;SDS011;55720;51.972;4.624;2023-08-06T08:11:40;6.55;;;1.75;;
35150;SDS011;55720;51.972;4.624;2023-08-06T08:14:06;4.20;;;2.00;;
35150;SDS011;55720;51.972;4.624;2023-08-06T08:16:32;2.95;;;2.10;;
35150;SDS011;55720;51.972;4.624;2023-08-06T08:18:57;1.65;;;1.55;;
35150;SDS011;55720;51.972;4.624;2023-08-06T08:21:22;8.80;;;1.58;;
35150;SDS011;55720;51.972;4.624;2023-08-06T08:23:49;2.78;;;1.40;;
35150;SDS011;55720;51.972;4.624;2023-08-06T08:26:14;2.00;;;1.73;;
35150;SDS011;55720;51.972;4.624;2023-08-06T08:28:40;2.35;;;1.50;;
35150;SDS011;55720;51.972;4.624;2023-08-06T08:31:08;3.72;;;1.70;;
35150;SDS011;55720;51.972;4.624;2023-08-06T08:33:34;5.45;;;1.48;;
35150;SDS011;55720;51.972;4.624;2023-08-06T08:35:59;2.85;;;1.45;;
35150;SDS011;55720;51.972;4.624;2023-08-06T08:38:25;3.20;;;1.42;;
35150;SDS011;55720;51.972;4.624;2023-08-06T08:40:51;2.05;;;1.25;;
35150;SDS011;55720;51.972;4.624;2023-08-06T08:43:20;2.67;;;1.83;;
35150;SDS011;55720;51.972;4.624;2023-08-06T08:45:46;1.65;;;1.23;;
35150;SDS011;55720;51.972;4.624;2023-08-06T08:48:15;2.50;;;1.65;;
35150;SDS011;55720;51.972;4.624;2023-08-06T08:50:44;4.95;;;1.77;;
35150;SDS011;55720;51.972;4.624;2023-08-06T08:53:10;2.85;;;1.50;;
35150;SDS011;55720;51.972;4.624;2023-08-06T08:55:37;4.40;;;1.40;;
35150;SDS011;55720;51.972;4.624;2023-08-06T08:58:04;6.13;;;1.30;;
35150;SDS011;55720;51.972;4.624;2023-08-06T09:00:29;3.22;;;1.23;;
35150;SDS011;55720;51.972;4.624;2023-08-06T09:02:55;3.03;;;1.35;;
35150;SDS011;55720;51.972;4.624;2023-08-06T09:05:22;1.52;;;1.20;;
35150;SDS011;55720;51.972;4.624;2023-08-06T09:07:49;2.58;;;1.02;;
35150;SDS011;55720;51.972;4.624;2023-08-06T09:10:17;2.72;;;1.20;;
35150;SDS011;55720;51.972;4.624;2023-08-06T09:12:48;1.60;;;1.20;;
35150;SDS011;55720;51.972;4.624;2023-08-06T09:15:15;2.08;;;0.98;;
35150;SDS011;55720;51.972;4.624;2023-08-06T09:17:41;2.10;;;1.10;;
35150;SDS011;55720;51.972;4.624;2023-08-06T09:20:13;1.55;;;1.00;;
35150;SDS011;55720;51.972;4.624;2023-08-06T09:22:39;3.50;;;1.80;;
35150;SDS011;55720;51.972;4.624;2023-08-06T09:25:06;2.97;;;1.00;;
35150;SDS011;55720;51.972;4.624;2023-08-06T09:27:35;2.53;;;1.17;;
35150;SDS011;55720;51.972;4.624;2023-08-06T09:30:02;1.38;;;1.20;;
35150;SDS011;55720;51.972;4.624;2023-08-06T09:32:41;2.95;;;1.10;;
35150;SDS011;55720;51.972;4.624;2023-08-06T09:35:15;3.00;;;1.20;;
35150;SDS011;55720;51.972;4.624;2023-08-06T09:40:23;2.97;;;0.93;;
35150;SDS011;55720;51.972;4.624;2023-08-06T09:42:56;2.10;;;1.02;;
35150;SDS011;55720;51.972;4.624;2023-08-06T09:45:23;2.20;;;1.02;;
35150;SDS011;55720;51.972;4.624;2023-08-06T09:47:56;3.45;;;1.08;;
35150;SDS011;55720;51.972;4.624;2023-08-06T09:50:22;1.05;;;0.90;;
35150;SDS011;55720;51.972;4.624;2023-08-06T09:52:50;2.85;;;1.17;;
35150;SDS011;55720;51.972;4.624;2023-08-06T09:55:17;2.15;;;0.90;;
35150;SDS011;55720;51.972;4.624;2023-08-06T09:57:43;1.38;;;1.00;;
35150;SDS011;55720;51.972;4.624;2023-08-06T10:00:09;1.98;;;1.00;;
35150;SDS011;55720;51.972;4.624;2023-08-06T10:02:37;1.42;;;1.17;;
35150;SDS011;55720;51.972;4.624;2023-08-06T10:05:03;1.27;;;0.80;;
35150;SDS011;55720;51.972;4.624;2023-08-06T10:07:29;1.20;;;0.65;;
35150;SDS011;55720;51.972;4.624;2023-08-06T10:09:55;2.33;;;1.20;;
35150;SDS011;55720;51.972;4.624;2023-08-06T10:12:21;1.88;;;1.02;;
35150;SDS011;55720;51.972;4.624;2023-08-06T10:14:47;1.58;;;1.10;;
35150;SDS011;55720;51.972;4.624;2023-08-06T10:17:16;2.05;;;0.75;;
35150;SDS011;55720;51.972;4.624;2023-08-06T10:19:42;1.20;;;0.88;;
35150;SDS011;55720;51.972;4.624;2023-08-06T10:22:14;0.70;;;0.57;;
35150;SDS011;55720;51.972;4.624;2023-08-06T10:27:20;1.08;;;0.60;;
35150;SDS011;55720;51.972;4.624;2023-08-06T10:33:02;1.10;;;0.70;;
35150;SDS011;55720;51.972;4.624;2023-08-06T10:35:41;0.90;;;0.68;;
35150;SDS011;55720;51.972;4.624;2023-08-06T10:38:12;5.28;;;2.63;;
35150;SDS011;55720;51.972;4.624;2023-08-06T10:40:40;0.82;;;0.73;;
35150;SDS011;55720;51.972;4.624;2023-08-06T10:43:07;6.53;;;0.88;;
35150;SDS011;55720;51.972;4.624;2023-08-06T10:45:34;1.90;;;1.30;;
35150;SDS011;55720;51.972;4.624;2023-08-06T10:48:00;1.23;;;0.95;;
35150;SDS011;55720;51.972;4.624;2023-08-06T10:50:26;1.02;;;0.85;;
35150;SDS011;55720;51.972;4.624;2023-08-06T10:52:51;1.55;;;0.70;;
35150;SDS011;55720;51.972;4.624;2023-08-06T10:55:27;1.48;;;0.90;;
35150;SDS011;55720;51.972;4.624;2023-08-06T10:57:54;1.25;;;0.82;;
35150;SDS011;55720;51.972;4.624;2023-08-06T11:00:23;0.65;;;0.50;;
35150;SDS011;55720;51.972;4.624;2023-08-06T11:02:51;1.20;;;0.80;;
35150;SDS011;55720;51.972;4.624;2023-08-06T11:05:18;3.80;;;0.90;;
35150;SDS011;55720;51.972;4.624;2023-08-06T11:07:44;1.30;;;0.77;;
35150;SDS011;55720;51.972;4.624;2023-08-06T11:10:10;1.50;;;0.75;;
35150;SDS011;55720;51.972;4.624;2023-08-06T11:12:37;2.22;;;0.70;;
35150;SDS011;55720;51.972;4.624;2023-08-06T11:15:03;0.82;;;0.77;;
35150;SDS011;55720;51.972;4.624;2023-08-06T11:17:30;0.80;;;0.80;;
35150;SDS011;55720;51.972;4.624;2023-08-06T11:19:58;1.23;;;0.90;;
35150;SDS011;55720;51.972;4.624;2023-08-06T11:22:24;2.40;;;0.80;;
35150;SDS011;55720;51.972;4.624;2023-08-06T11:24:50;1.73;;;1.00;;
35150;SDS011;55720;51.972;4.624;2023-08-06T11:27:16;1.63;;;1.05;;
35150;SDS011;55720;51.972;4.624;2023-08-06T11:29:42;1.08;;;0.98;;
35150;SDS011;55720;51.972;4.624;2023-08-06T11:32:09;2.13;;;0.88;;
35150;SDS011;55720;51.972;4.624;2023-08-06T11:34:35;2.67;;;1.55;;
35150;SDS011;55720;51.972;4.624;2023-08-06T11:37:04;1.00;;;0.82;;
35150;SDS011;55720;51.972;4.624;2023-08-06T11:39:31;1.92;;;0.70;;
35150;SDS011;55720;51.972;4.624;2023-08-06T11:41:58;2.33;;;0.82;;
35150;SDS011;55720;51.972;4.624;2023-08-06T11:44:25;1.08;;;0.50;;
35150;SDS011;55720;51.972;4.624;2023-08-06T11:46:51;1.05;;;0.43;;
35150;SDS011;55720;51.972;4.624;2023-08-06T11:54:38;1.08;;;0.80;;
35150;SDS011;55720;51.972;4.624;2023-08-06T11:57:07;2.22;;;0.60;;
35150;SDS011;55720;51.972;4.624;2023-08-06T11:59:33;4.38;;;0.60;;
35150;SDS011;55720;51.972;4.624;2023-08-06T12:02:05;0.90;;;0.70;;
35150;SDS011;55720;51.972;4.624;2023-08-06T12:07:26;0.63;;;0.47;;
35150;SDS011;55720;51.972;4.624;2023-08-06T12:09:55;0.95;;;0.50;;
35150;SDS011;55720;51.972;4.624;2023-08-06T12:12:20;0.60;;;0.50;;
35150;SDS011;55720;51.972;4.624;2023-08-06T12:14:45;1.33;;;0.40;;
35150;SDS011;55720;51.972;4.624;2023-08-06T12:17:11;1.35;;;0.47;;
35150;SDS011;55720;51.972;4.624;2023-08-06T12:19:36;2.22;;;0.45;;
35150;SDS011;55720;51.972;4.624;2023-08-06T12:22:01;2.25;;;0.35;;
35150;SDS011;55720;51.972;4.624;2023-08-06T12:24:28;0.30;;;0.30;;
35150;SDS011;55720;51.972;4.624;2023-08-06T12:26:56;1.65;;;0.65;;
35150;SDS011;55720;51.972;4.624;2023-08-06T12:29:22;0.90;;;0.40;;
35150;SDS011;55720;51.972;4.624;2023-08-06T12:31:48;2.05;;;0.30;;
35150;SDS011;55720;51.972;4.624;2023-08-06T12:34:13;1.10;;;0.40;;
35150;SDS011;55720;51.972;4.624;2023-08-06T12:36:39;1.05;;;0.30;;
35150;SDS011;55720;51.972;4.624;2023-08-06T12:39:04;0.60;;;0.40;;
35150;SDS011;55720;51.972;4.624;2023-08-06T12:41:30;0.82;;;0.40;;
35150;SDS011;55720;51.972;4.624;2023-08-06T12:43:55;0.90;;;0.30;;
35150;SDS011;55720;51.972;4.624;2023-08-06T12:46:20;4.03;;;0.30;;
35150;SDS011;55720;51.972;4.624;2023-08-06T12:48:46;1.38;;;0.30;;
35150;SDS011;55720;51.972;4.624;2023-08-06T12:51:13;0.20;;;0.20;;
35150;SDS011;55720;51.972;4.624;2023-08-06T12:53:38;1.40;;;0.40;;
35150;SDS011;55720;51.972;4.624;2023-08-06T12:56:04;3.78;;;0.60;;
35150;SDS011;55720;51.972;4.624;2023-08-06T12:58:29;2.58;;;0.38;;
35150;SDS011;55720;51.972;4.624;2023-08-06T13:00:54;1.83;;;0.30;;
35150;SDS011;55720;51.972;4.624;2023-08-06T13:03:21;0.70;;;0.30;;
35150;SDS011;55720;51.972;4.624;2023-08-06T13:05:46;2.55;;;0.52;;
35150;SDS011;55720;51.972;4.624;2023-08-06T13:08:11;1.65;;;0.40;;
35150;SDS011;55720;51.972;4.624;2023-08-06T13:10:37;2.13;;;0.30;;
35150;SDS011;55720;51.972;4.624;2023-08-06T13:13:02;2.10;;;0.50;;
35150;SDS011;55720;51.972;4.624;2023-08-06T13:15:28;1.38;;;0.25;;
35150;SDS011;55720;51.972;4.624;2023-08-06T13:17:53;1.48;;;0.70;;
35150;SDS011;55720;51.972;4.624;2023-08-06T13:20:18;1.02;;;0.50;;
35150;SDS011;55720;51.972;4.624;2023-08-06T13:22:47;0.93;;;0.20;;
35150;SDS011;55720;51.972;4.624;2023-08-06T13:25:15;4.25;;;0.47;;
35150;SDS011;55720;51.972;4.624;2023-08-06T13:27:44;1.85;;;0.40;;
35150;SDS011;55720;51.972;4.624;2023-08-06T13:30:10;0.50;;;0.20;;
35150;SDS011;55720;51.972;4.624;2023-08-06T13:32:36;0.30;;;0.30;;
35150;SDS011;55720;51.972;4.624;2023-08-06T13:35:03;0.30;;;0.30;;
35150;SDS011;55720;51.972;4.624;2023-08-06T13:37:31;2.23;;;0.33;;
35150;SDS011;55720;51.972;4.624;2023-08-06T13:39:56;1.90;;;0.40;;
35150;SDS011;55720;51.972;4.624;2023-08-06T13:42:22;0.25;;;0.20;;
35150;SDS011;55720;51.972;4.624;2023-08-06T13:44:47;1.73;;;0.22;;
35150;SDS011;55720;51.972;4.624;2023-08-06T13:47:13;3.35;;;0.65;;
35150;SDS011;55720;51.972;4.624;2023-08-06T13:49:38;6.75;;;0.90;;
35150;SDS011;55720;51.972;4.624;2023-08-06T13:52:04;2.75;;;0.70;;
35150;SDS011;55720;51.972;4.624;2023-08-06T13:54:29;5.68;;;0.90;;
35150;SDS011;55720;51.972;4.624;2023-08-06T13:56:55;4.50;;;0.95;;
35150;SDS011;55720;51.972;4.624;2023-08-06T13:59:20;6.78;;;0.70;;
35150;SDS011;55720;51.972;4.624;2023-08-06T14:01:45;2.47;;;1.52;;
35150;SDS011;55720;51.972;4.624;2023-08-06T14:04:12;3.55;;;0.70;;
35150;SDS011;55720;51.972;4.624;2023-08-06T14:06:38;5.10;;;0.40;;
35150;SDS011;55720;51.972;4.624;2023-08-06T14:09:03;2.85;;;0.50;;
35150;SDS011;55720;51.972;4.624;2023-08-06T14:11:29;3.22;;;0.47;;
35150;SDS011;55720;51.972;4.624;2023-08-06T14:13:55;3.30;;;0.43;;
35150;SDS011;55720;51.972;4.624;2023-08-06T14:16:20;3.38;;;0.55;;
35150;SDS011;55720;51.972;4.624;2023-08-06T14:18:45;2.00;;;0.30;;
35150;SDS011;55720;51.972;4.624;2023-08-06T14:21:11;7.35;;;0.50;;
35150;SDS011;55720;51.972;4.624;2023-08-06T14:23:36;5.03;;;0.52;;
35150;SDS011;55720;51.972;4.624;2023-08-06T14:26:01;6.20;;;0.55;;
35150;SDS011;55720;51.972;4.624;2023-08-06T14:28:27;3.78;;;0.52;;
35150;SDS011;55720;51.972;4.624;2023-08-06T14:30:52;2.03;;;0.52;;
35150;SDS011;55720;51.972;4.624;2023-08-06T14:33:18;2.58;;;0.52;;
35150;SDS011;55720;51.972;4.624;2023-08-06T14:35:43;1.75;;;0.35;;
35150;SDS011;55720;51.972;4.624;2023-08-06T14:38:09;1.80;;;0.35;;
35150;SDS011;55720;51.972;4.624;2023-08-06T14:40:34;6.43;;;0.80;;
35150;SDS011;55720;51.972;4.624;2023-08-06T14:43:02;3.20;;;0.38;;
35150;SDS011;55720;51.972;4.624;2023-08-06T14:45:30;5.50;;;0.70;;
35150;SDS011;55720;51.972;4.624;2023-08-06T14:47:55;7.57;;;1.33;;
35150;SDS011;55720;51.972;4.624;2023-08-06T14:50:21;2.58;;;0.50;;
35150;SDS011;55720;51.972;4.624;2023-08-06T14:52:46;8.40;;;1.27;;
35150;SDS011;55720;51.972;4.624;2023-08-06T14:55:17;3.47;;;0.90;;
35150;SDS011;55720;51.972;4.624;2023-08-06T14:57:48;7.50;;;0.82;;
35150;SDS011;55720;51.972;4.624;2023-08-06T15:00:13;2.95;;;0.80;;